createdAt,value
2018-04-18T00:00:29.191Z,15.00
2018-04-18T00:02:56.853Z,14.23
2018-04-18T00:05:24.557Z,14.43
2018-04-18T00:07:52.158Z,13.07
2018-04-18T00:10:19.758Z,12.97
2018-04-18T00:12:47.405Z,11.70
2018-04-18T00:15:14.997Z,12.37
2018-04-18T00:17:42.598Z,11.90
2018-04-18T00:20:10.250Z,12.13
2018-04-18T00:22:37.858Z,11.23
2018-04-18T00:25:05.486Z,11.83
2018-04-18T00:27:33.101Z,12.43
2018-04-18T00:30:00.721Z,11.97
2018-04-18T00:32:28.349Z,12.60
2018-04-18T00:34:56.021Z,12.07
2018-04-18T00:37:23.657Z,12.13
2018-04-18T00:39:51.273Z,12.37
2018-04-18T00:42:18.898Z,12.97
2018-04-18T00:44:46.514Z,13.73
2018-04-18T00:47:14.121Z,13.23
2018-04-18T00:49:41.809Z,13.90
2018-04-18T00:52:09.417Z,13.37
2018-04-18T00:54:37.025Z,13.27
2018-04-18T00:57:04.657Z,12.97
2018-04-18T00:59:32.259Z,14.07
2018-04-18T01:01:59.858Z,13.57
2018-04-18T01:04:27.538Z,13.70
2018-04-18T01:06:55.129Z,12.53
2018-04-18T01:09:22.721Z,12.73
2018-04-18T01:11:50.382Z,13.63
2018-04-18T01:14:18.009Z,13.30
2018-04-18T01:16:45.606Z,13.40
2018-04-18T01:19:13.310Z,13.10
2018-04-18T01:21:40.906Z,13.63
2018-04-18T01:24:08.547Z,12.53
2018-04-18T01:26:36.157Z,10.10
2018-04-18T01:29:03.805Z,9.13
2018-04-18T01:31:31.434Z,9.80
2018-04-18T01:33:59.026Z,8.97
2018-04-18T01:36:27.217Z,9.07
2018-04-18T01:38:54.885Z,8.43
2018-04-18T01:41:22.477Z,8.93
2018-04-18T01:43:50.093Z,8.77
2018-04-18T01:46:17.735Z,9.53
2018-04-18T01:48:45.350Z,9.27
2018-04-18T01:51:12.961Z,9.03
2018-04-18T01:53:40.585Z,9.83
2018-04-18T01:56:08.205Z,9.37
2018-04-18T01:58:35.801Z,9.13
2018-04-18T02:01:03.430Z,10.10
2018-04-18T02:03:31.065Z,10.23
2018-04-18T02:05:58.706Z,10.07
2018-04-18T02:08:26.357Z,10.23
2018-04-18T02:10:53.966Z,11.70
2018-04-18T02:13:21.612Z,11.87
2018-04-18T02:15:49.221Z,10.93
2018-04-18T02:18:16.825Z,12.10
2018-04-18T02:20:44.463Z,12.97
2018-04-18T02:23:12.091Z,11.83
2018-04-18T02:25:39.733Z,12.80
2018-04-18T02:28:07.322Z,11.80
2018-04-18T02:30:34.931Z,12.57
2018-04-18T02:33:02.582Z,12.13
2018-04-18T02:35:30.214Z,11.73
2018-04-18T02:37:57.809Z,12.33
2018-04-18T02:40:25.413Z,11.43
2018-04-18T02:42:53.010Z,12.47
2018-04-18T02:45:20.615Z,12.30
2018-04-18T02:47:48.218Z,12.13
2018-04-18T02:50:15.890Z,11.93
2018-04-18T02:52:43.495Z,11.40
2018-04-18T02:55:11.125Z,12.10
2018-04-18T02:57:38.767Z,11.77
2018-04-18T03:00:06.432Z,12.43
2018-04-18T03:02:34.073Z,11.83
2018-04-18T03:05:02.530Z,12.27
2018-04-18T03:07:30.121Z,12.70
2018-04-18T03:09:57.729Z,12.50
2018-04-18T03:12:25.330Z,12.47
2018-04-18T03:14:52.922Z,12.43
2018-04-18T03:17:20.538Z,12.10
2018-04-18T03:19:48.205Z,13.40
2018-04-18T03:22:15.814Z,12.60
2018-04-18T03:24:43.409Z,13.50
2018-04-18T03:27:11.091Z,13.57
2018-04-18T03:29:38.721Z,13.17
2018-04-18T03:32:06.367Z,12.80
2018-04-18T03:34:33.970Z,13.67
2018-04-18T03:37:01.593Z,11.53
2018-04-18T03:39:29.202Z,12.47
2018-04-18T03:41:56.809Z,11.50
2018-04-18T03:44:24.416Z,11.80
2018-04-18T03:46:52.049Z,10.37
2018-04-18T03:49:19.677Z,11.23
2018-04-18T03:51:47.289Z,11.23
2018-04-18T03:54:14.918Z,10.27
2018-04-18T03:56:42.517Z,11.20
2018-04-18T03:59:10.109Z,10.53
2018-04-18T04:01:37.709Z,11.13
2018-04-18T04:04:05.313Z,11.27
2018-04-18T04:06:32.919Z,10.63
2018-04-18T04:09:00.524Z,11.50
2018-04-18T04:11:28.161Z,12.27
2018-04-18T04:13:55.854Z,11.80
2018-04-18T04:16:35.119Z,10.47
2018-04-18T04:19:14.410Z,12.10
2018-04-18T04:21:53.806Z,10.60
2018-04-18T04:24:43.082Z,11.23
2018-04-18T04:27:10.778Z,12.10
2018-04-18T04:29:38.365Z,11.07
2018-04-18T04:32:05.984Z,11.90
2018-04-18T04:34:33.659Z,12.03
2018-04-18T04:37:01.276Z,12.90
2018-04-18T04:39:28.917Z,11.73
2018-04-18T04:41:56.563Z,12.63
2018-04-18T04:44:24.165Z,11.27
2018-04-18T04:46:51.763Z,12.33
2018-04-18T04:49:19.453Z,12.97
2018-04-18T04:51:47.063Z,12.83
2018-04-18T04:54:14.670Z,12.80
2018-04-18T04:56:42.317Z,12.93
2018-04-18T04:59:09.909Z,12.23
2018-04-18T05:01:37.525Z,11.90
2018-04-18T05:04:05.162Z,12.00
2018-04-18T05:06:32.853Z,11.97
2018-04-18T05:09:00.471Z,12.13
2018-04-18T05:11:28.097Z,12.03
2018-04-18T05:13:55.689Z,12.00
2018-04-18T05:16:23.290Z,11.83
2018-04-18T05:18:50.928Z,11.67
2018-04-18T05:21:18.525Z,11.10
2018-04-18T05:23:46.165Z,10.70
2018-04-18T05:26:13.804Z,11.00
2018-04-18T05:28:41.404Z,10.50
2018-04-18T05:31:09.066Z,11.07
2018-04-18T05:33:36.693Z,10.47
2018-04-18T05:36:04.293Z,10.27
2018-04-18T05:38:31.996Z,10.07
2018-04-18T05:40:59.597Z,10.07
2018-04-18T05:43:27.229Z,9.97
2018-04-18T05:45:54.837Z,9.87
2018-04-18T05:48:22.474Z,9.80
2018-04-18T05:50:50.113Z,10.23
2018-04-18T05:53:17.759Z,10.17
2018-04-18T05:55:45.462Z,9.10
2018-04-18T05:58:13.061Z,10.03
2018-04-18T06:00:40.683Z,8.93
2018-04-18T06:03:08.397Z,8.97
2018-04-18T06:05:35.997Z,10.63
2018-04-18T06:08:03.602Z,10.03
2018-04-18T06:10:31.201Z,10.37
2018-04-18T06:12:58.902Z,9.30
2018-04-18T06:15:26.509Z,10.13
2018-04-18T06:17:54.101Z,10.10
2018-04-18T06:20:21.725Z,8.73
2018-04-18T06:22:49.320Z,9.73
2018-04-18T06:25:16.970Z,10.13
2018-04-18T06:27:44.681Z,10.53
2018-04-18T06:30:12.302Z,8.60
2018-04-18T06:32:40.025Z,8.07
2018-04-18T06:35:07.626Z,9.57
2018-04-18T06:37:35.246Z,9.37
2018-04-18T06:40:02.917Z,8.40
2018-04-18T06:42:30.514Z,10.47
2018-04-18T06:44:58.133Z,8.23
2018-04-18T06:47:25.765Z,8.40
2018-04-18T06:49:53.354Z,9.07
2018-04-18T06:52:20.945Z,8.43
2018-04-18T06:54:48.582Z,13.17
2018-04-18T06:57:16.177Z,7.63
2018-04-18T06:59:43.911Z,7.10
2018-04-18T07:02:11.541Z,7.40
2018-04-18T07:04:39.150Z,7.40
2018-04-18T07:07:06.733Z,7.17
2018-04-18T07:09:34.361Z,6.83
2018-04-18T07:12:01.982Z,6.80
2018-04-18T07:14:29.589Z,7.43
2018-04-18T07:16:57.209Z,7.40
2018-04-18T07:19:24.857Z,5.87
2018-04-18T07:21:52.526Z,6.43
2018-04-18T07:24:20.119Z,5.73
2018-04-18T07:26:47.710Z,7.00
2018-04-18T07:29:15.337Z,6.17
2018-04-18T07:31:42.997Z,11.57
2018-04-18T07:34:10.765Z,5.53
2018-04-18T07:36:38.369Z,7.03
2018-04-18T07:39:06.797Z,6.17
2018-04-18T07:41:34.394Z,5.97
2018-04-18T07:44:02.003Z,6.50
2018-04-18T07:46:29.596Z,6.87
2018-04-18T07:48:57.283Z,6.80
2018-04-18T07:51:24.910Z,6.27
2018-04-18T07:53:52.506Z,7.70
2018-04-18T07:56:20.154Z,5.93
2018-04-18T07:58:47.750Z,7.30
2018-04-18T08:01:15.352Z,6.90
2018-04-18T08:03:42.979Z,6.60
2018-04-18T08:06:10.585Z,6.67
2018-04-18T08:08:38.189Z,6.03
2018-04-18T08:11:05.820Z,6.87
2018-04-18T08:13:33.433Z,6.90
2018-04-18T08:16:01.047Z,7.03
2018-04-18T08:18:28.641Z,6.47
2018-04-18T08:20:56.225Z,6.47
2018-04-18T08:23:23.849Z,7.17
2018-04-18T08:25:51.446Z,6.70
2018-04-18T08:28:19.041Z,6.63
2018-04-18T08:30:46.633Z,6.63
2018-04-18T08:33:14.366Z,6.30
2018-04-18T08:35:42.041Z,6.33
2018-04-18T08:38:09.660Z,7.03
2018-04-18T08:40:37.262Z,6.53
2018-04-18T08:43:04.893Z,5.90
2018-04-18T08:45:32.489Z,7.23
2018-04-18T08:48:00.085Z,6.73
2018-04-18T08:50:27.713Z,6.00
2018-04-18T08:52:55.331Z,6.17
2018-04-18T08:55:22.950Z,6.17
2018-04-18T08:57:50.609Z,6.93
2018-04-18T09:00:18.263Z,6.60
2018-04-18T09:02:45.892Z,6.17
2018-04-18T09:05:13.565Z,6.00
2018-04-18T09:07:41.156Z,5.93
2018-04-18T09:10:08.749Z,6.10
2018-04-18T09:12:36.465Z,5.67
2018-04-18T09:15:04.050Z,5.50
2018-04-18T09:17:31.635Z,4.93
2018-04-18T09:19:59.281Z,5.60
2018-04-18T09:22:26.869Z,5.43
2018-04-18T09:24:54.478Z,5.17
2018-04-18T09:27:22.106Z,5.83
2018-04-18T09:29:49.691Z,5.63
2018-04-18T09:32:17.281Z,5.77
2018-04-18T09:34:44.893Z,5.33
2018-04-18T09:37:12.537Z,5.77
2018-04-18T09:39:40.204Z,4.70
2018-04-18T09:42:07.844Z,4.60
2018-04-18T09:44:35.477Z,4.27
2018-04-18T09:47:03.090Z,4.60
2018-04-18T09:49:30.688Z,4.77
2018-04-18T09:51:58.329Z,4.50
2018-04-18T09:54:25.945Z,4.50
2018-04-18T09:56:53.541Z,5.30
2018-04-18T09:59:21.162Z,4.80
2018-04-18T10:01:48.753Z,4.37
2018-04-18T10:04:31.527Z,4.07
2018-04-18T10:06:59.140Z,4.07
2018-04-18T10:09:26.792Z,4.23
2018-04-18T10:11:54.377Z,3.83
2018-04-18T10:14:21.973Z,4.03
2018-04-18T10:16:49.613Z,3.90
2018-04-18T10:19:17.172Z,5.10
2018-04-18T10:21:44.720Z,3.63
2018-04-18T10:24:12.312Z,4.10
2018-04-18T10:26:39.860Z,4.00
2018-04-18T10:29:07.426Z,3.57
2018-04-18T10:31:35.048Z,3.90
2018-04-18T10:34:02.595Z,3.73
2018-04-18T10:36:30.143Z,4.00
2018-04-18T10:38:57.720Z,4.77
2018-04-18T10:41:25.273Z,4.07
2018-04-18T10:43:52.828Z,3.83
2018-04-18T10:46:20.396Z,3.57
2018-04-18T10:48:47.980Z,3.90
2018-04-18T10:51:15.540Z,3.47
2018-04-18T10:53:43.090Z,3.77
2018-04-18T10:56:10.670Z,3.10
2018-04-18T10:58:38.277Z,3.00
2018-04-18T11:01:05.828Z,3.30
2018-04-18T11:03:33.407Z,2.83
2018-04-18T11:06:00.956Z,2.93
2018-04-18T11:08:28.524Z,3.43
2018-04-18T11:10:56.080Z,2.93
2018-04-18T11:13:23.697Z,3.17
2018-04-18T11:15:51.244Z,3.37
2018-04-18T11:18:18.804Z,3.63
2018-04-18T11:20:46.396Z,3.30
2018-04-18T11:23:14.012Z,3.33
2018-04-18T11:25:41.721Z,3.50
2018-04-18T11:28:09.368Z,3.20
2018-04-18T11:30:37.005Z,3.47
2018-04-18T11:33:04.629Z,3.00
2018-04-18T11:35:32.229Z,3.20
2018-04-18T11:37:59.813Z,2.90
2018-04-18T11:40:27.452Z,3.80
2018-04-18T11:42:55.034Z,3.23
2018-04-18T11:45:22.617Z,3.77
2018-04-18T11:47:50.205Z,3.50
2018-04-18T11:50:17.795Z,3.33
2018-04-18T11:52:45.430Z,3.90
2018-04-18T11:55:13.026Z,3.67
2018-04-18T11:57:40.655Z,3.67
2018-04-18T12:00:08.281Z,3.27
2018-04-18T12:02:35.968Z,2.77
2018-04-18T12:05:03.596Z,3.47
2018-04-18T12:07:31.237Z,3.90
2018-04-18T12:09:58.834Z,3.73
2018-04-18T12:12:26.427Z,3.67
2018-04-18T12:14:54.071Z,2.93
2018-04-18T12:17:21.722Z,3.83
2018-04-18T12:19:49.447Z,3.80
2018-04-18T12:22:17.065Z,3.57
2018-04-18T12:24:44.684Z,3.10
2018-04-18T12:27:12.270Z,3.70
2018-04-18T12:29:39.857Z,3.37
2018-04-18T12:32:07.485Z,3.63
2018-04-18T12:34:35.150Z,3.00
2018-04-18T12:37:02.748Z,3.40
2018-04-18T12:39:30.332Z,2.93
2018-04-18T12:41:57.921Z,3.17
2018-04-18T12:44:25.561Z,2.80
2018-04-18T12:46:53.141Z,3.30
2018-04-18T12:49:20.812Z,2.93
2018-04-18T12:51:48.409Z,2.97
2018-04-18T12:54:15.994Z,3.10
2018-04-18T12:56:43.615Z,3.60
2018-04-18T12:59:11.225Z,3.00
2018-04-18T13:01:38.825Z,3.57
2018-04-18T13:04:06.458Z,3.80
2018-04-18T13:06:34.089Z,3.97
2018-04-18T13:09:01.680Z,3.87
2018-04-18T13:11:29.272Z,3.03
2018-04-18T13:13:56.945Z,3.60
2018-04-18T13:16:24.533Z,3.23
2018-04-18T13:18:52.230Z,3.90
2018-04-18T13:21:19.833Z,3.97
2018-04-18T13:23:47.465Z,3.50
2018-04-18T13:26:15.114Z,3.50
2018-04-18T13:28:42.733Z,3.10
2018-04-18T13:31:11.397Z,3.17
2018-04-18T13:33:39.025Z,3.60
2018-04-18T13:36:06.634Z,3.47
2018-04-18T13:38:34.255Z,3.80
2018-04-18T13:41:01.890Z,3.57
2018-04-18T13:43:29.474Z,3.10
2018-04-18T13:45:57.061Z,3.47
2018-04-18T13:48:24.686Z,3.67
2018-04-18T13:50:52.282Z,3.37
2018-04-18T13:53:19.921Z,4.30
2018-04-18T13:55:47.557Z,3.60
2018-04-18T13:58:15.166Z,3.10
2018-04-18T14:00:42.765Z,3.83
2018-04-18T14:03:10.361Z,4.17
2018-04-18T14:05:37.957Z,3.60
2018-04-18T14:08:05.685Z,4.33
2018-04-18T14:10:33.397Z,3.50
2018-04-18T14:13:01.022Z,3.70
2018-04-18T14:15:28.688Z,3.37
2018-04-18T14:17:56.321Z,3.37
2018-04-18T14:20:23.917Z,3.70
2018-04-18T14:22:51.553Z,3.37
2018-04-18T14:25:19.187Z,4.17
2018-04-18T14:27:46.805Z,3.30
2018-04-18T14:30:14.434Z,3.57
2018-04-18T14:32:42.116Z,3.60
2018-04-18T14:35:09.745Z,4.27
2018-04-18T14:37:37.336Z,3.70
2018-04-18T14:40:05.014Z,3.83
2018-04-18T14:42:32.610Z,3.77
2018-04-18T14:45:00.259Z,3.60
2018-04-18T14:47:27.871Z,4.60
2018-04-18T14:49:55.465Z,3.80
2018-04-18T14:52:23.098Z,4.07
2018-04-18T14:54:50.697Z,3.90
2018-04-18T14:57:18.325Z,3.53
2018-04-18T14:59:46.014Z,3.97
2018-04-18T15:02:13.630Z,3.50
2018-04-18T15:04:41.225Z,3.33
2018-04-18T15:07:08.859Z,3.57
2018-04-18T15:09:36.509Z,3.50
2018-04-18T15:12:04.110Z,3.20
2018-04-18T15:14:31.715Z,3.57
2018-04-18T15:16:59.309Z,3.40
2018-04-18T15:19:26.933Z,3.30
2018-04-18T15:21:54.554Z,4.37
2018-04-18T15:24:22.173Z,3.50
2018-04-18T15:26:49.806Z,3.73
2018-04-18T15:29:17.414Z,3.60
2018-04-18T15:31:45.080Z,4.00
2018-04-18T15:34:12.738Z,4.03
2018-04-18T15:36:40.379Z,4.70
2018-04-18T15:39:07.970Z,4.30
2018-04-18T15:41:35.613Z,3.77
2018-04-18T15:44:03.316Z,3.87
2018-04-18T15:46:30.901Z,4.30
2018-04-18T15:49:01.610Z,4.03
2018-04-18T15:51:29.205Z,4.73
2018-04-18T15:53:56.837Z,4.27
2018-04-18T15:56:24.550Z,3.77
2018-04-18T15:58:52.247Z,4.20
2018-04-18T16:01:19.873Z,4.30
2018-04-18T16:03:47.477Z,4.17
2018-04-18T16:06:15.100Z,4.07
2018-04-18T16:08:42.745Z,4.70
2018-04-18T16:11:10.382Z,4.73
2018-04-18T16:13:38.010Z,3.97
2018-04-18T16:16:05.733Z,5.20
2018-04-18T16:18:33.350Z,4.80
2018-04-18T16:21:00.937Z,4.60
2018-04-18T16:23:28.615Z,4.53
2018-04-18T16:25:56.325Z,4.10
2018-04-18T16:28:23.925Z,4.40
2018-04-18T16:30:51.544Z,4.73
2018-04-18T16:33:19.195Z,4.97
2018-04-18T16:35:46.805Z,5.20
2018-04-18T16:38:14.424Z,4.30
2018-04-18T16:40:42.066Z,12.47
2018-04-18T16:43:09.670Z,4.93
2018-04-18T16:45:37.267Z,6.57
2018-04-18T16:48:04.978Z,8.00
2018-04-18T16:50:32.599Z,23.90
2018-04-18T16:53:00.224Z,16.53
2018-04-18T16:55:27.858Z,9.03
2018-04-18T16:57:55.461Z,7.17
2018-04-18T17:00:23.061Z,6.17
2018-04-18T17:02:50.677Z,6.97
2018-04-18T17:05:18.290Z,8.40
2018-04-18T17:07:45.925Z,10.30
2018-04-18T17:10:13.650Z,12.47
2018-04-18T17:12:41.281Z,11.73
2018-04-18T17:15:08.941Z,11.60
2018-04-18T17:17:36.568Z,8.77
2018-04-18T17:20:04.203Z,7.97
2018-04-18T17:22:31.841Z,5.80
2018-04-18T17:24:59.432Z,6.40
2018-04-18T17:27:27.034Z,6.30
2018-04-18T17:29:54.692Z,5.83
2018-04-18T17:32:22.289Z,5.83
2018-04-18T17:34:49.931Z,5.70
2018-04-18T17:37:17.526Z,6.10
2018-04-18T17:39:45.117Z,5.87
2018-04-18T17:42:12.730Z,6.40
2018-04-18T17:44:40.329Z,5.13
2018-04-18T17:47:07.933Z,5.63
2018-04-18T17:49:35.521Z,5.13
2018-04-18T17:52:03.165Z,5.47
2018-04-18T17:54:30.780Z,5.30
2018-04-18T17:56:58.407Z,5.73
2018-04-18T17:59:26.083Z,5.50
2018-04-18T18:01:53.709Z,5.03
2018-04-18T18:04:21.405Z,5.63
2018-04-18T18:06:49.141Z,5.77
2018-04-18T18:09:16.824Z,5.20
2018-04-18T18:11:44.455Z,5.77
2018-04-18T18:14:12.050Z,5.07
2018-04-18T18:16:40.170Z,5.70
2018-04-18T18:19:07.796Z,5.53
2018-04-18T18:21:35.450Z,5.53
2018-04-18T18:24:03.153Z,7.43
2018-04-18T18:26:30.840Z,6.67
2018-04-18T18:28:58.540Z,6.10
2018-04-18T18:31:26.204Z,7.80
2018-04-18T18:33:53.832Z,6.07
2018-04-18T18:36:21.557Z,6.27
2018-04-18T18:38:49.263Z,6.20
2018-04-18T18:41:16.952Z,5.43
2018-04-18T18:43:44.585Z,5.97
2018-04-18T18:46:12.222Z,5.20
2018-04-18T18:48:39.823Z,6.03
2018-04-18T18:51:07.503Z,5.90
2018-04-18T18:53:35.137Z,5.80
2018-04-18T18:56:02.745Z,5.57
2018-04-18T18:58:30.422Z,5.40
2018-04-18T19:00:58.049Z,5.33
2018-04-18T19:03:25.672Z,6.13
2018-04-18T19:05:53.396Z,5.77
2018-04-18T19:08:21.026Z,5.83
2018-04-18T19:10:48.686Z,5.93
2018-04-18T19:13:16.362Z,5.20
2018-04-18T19:15:44.006Z,5.20
2018-04-18T19:18:11.595Z,5.33
2018-04-18T19:20:39.190Z,5.30
2018-04-18T19:23:06.829Z,6.03
2018-04-18T19:25:34.451Z,5.83
2018-04-18T19:28:02.102Z,5.97
2018-04-18T19:30:29.730Z,6.00
2018-04-18T19:32:57.339Z,5.47
2018-04-18T19:35:25.015Z,5.33
2018-04-18T19:37:52.643Z,5.40
2018-04-18T19:40:20.239Z,5.50
2018-04-18T19:42:47.873Z,5.30
2018-04-18T19:45:15.485Z,5.33
2018-04-18T19:47:43.107Z,5.73
2018-04-18T19:50:10.771Z,4.90
2018-04-18T19:52:38.361Z,5.60
2018-04-18T19:55:05.972Z,5.27
2018-04-18T19:57:33.611Z,5.30
2018-04-18T20:00:01.342Z,4.97
2018-04-18T20:02:28.982Z,5.30
2018-04-18T20:04:56.573Z,5.17
2018-04-18T20:07:24.169Z,4.77
2018-04-18T20:09:51.753Z,4.80
2018-04-18T20:12:19.384Z,5.43
2018-04-18T20:14:47.005Z,4.90
2018-04-18T20:17:14.629Z,4.93
2018-04-18T20:19:42.237Z,4.97
2018-04-18T20:22:09.872Z,4.37
2018-04-18T20:24:37.501Z,5.20
2018-04-18T20:27:05.095Z,4.70
2018-04-18T20:29:33.378Z,4.83
2018-04-18T20:32:01.017Z,4.97
2018-04-18T20:34:28.610Z,4.77
2018-04-18T20:36:56.205Z,4.47
2018-04-18T20:39:23.818Z,4.73
2018-04-18T20:41:55.399Z,4.73
2018-04-18T20:44:23.056Z,4.40
2018-04-18T20:46:50.653Z,4.73
2018-04-18T20:49:18.241Z,4.67
2018-04-18T20:51:45.854Z,4.53
2018-04-18T20:54:13.539Z,4.87
2018-04-18T20:56:41.161Z,4.67
2018-04-18T20:59:08.795Z,4.63
2018-04-18T21:01:36.440Z,5.00
2018-04-18T21:04:04.033Z,4.67
2018-04-18T21:06:31.637Z,4.60
2018-04-18T21:08:59.269Z,4.90
2018-04-18T21:11:26.916Z,5.30
2018-04-18T21:13:54.531Z,4.80
2018-04-18T21:16:22.134Z,5.33
2018-04-18T21:18:49.745Z,5.50
2018-04-18T21:21:17.341Z,5.67
2018-04-18T21:23:44.943Z,5.40
2018-04-18T21:26:12.538Z,4.70
2018-04-18T21:28:40.173Z,5.33
2018-04-18T21:31:07.775Z,5.73
2018-04-18T21:33:35.506Z,5.20
2018-04-18T21:36:03.141Z,5.10
2018-04-18T21:38:30.769Z,6.33
2018-04-18T21:40:58.393Z,6.20
2018-04-18T21:43:26.021Z,5.80
2018-04-18T21:45:53.604Z,6.60
2018-04-18T21:48:21.263Z,6.10
2018-04-18T21:50:48.878Z,6.77
2018-04-18T21:53:16.473Z,6.23
2018-04-18T21:55:44.074Z,6.77
2018-04-18T21:58:11.719Z,6.13
2018-04-18T22:00:39.318Z,6.40
2018-04-18T22:03:06.910Z,5.80
2018-04-18T22:05:34.500Z,6.93
2018-04-18T22:08:02.080Z,6.30
2018-04-18T22:10:29.662Z,5.90
2018-04-18T22:12:57.224Z,6.30
2018-04-18T22:15:24.814Z,6.27
2018-04-18T22:17:52.467Z,6.23
2018-04-18T22:20:20.033Z,6.90
2018-04-18T22:22:47.631Z,6.70
2018-04-18T22:25:15.188Z,5.73
2018-04-18T22:27:42.740Z,6.30
2018-04-18T22:30:10.376Z,6.33
2018-04-18T22:32:37.932Z,6.50
2018-04-18T22:35:05.484Z,6.23
2018-04-18T22:37:33.042Z,6.47
2018-04-18T22:40:00.602Z,5.87
2018-04-18T22:42:28.159Z,6.10
2018-04-18T22:44:55.772Z,6.13
2018-04-18T22:47:23.360Z,6.20
2018-04-18T22:49:50.907Z,6.23
2018-04-18T22:52:18.524Z,6.63
2018-04-18T22:54:46.116Z,6.07
2018-04-18T22:57:13.688Z,5.93
2018-04-18T22:59:41.249Z,5.97
2018-04-18T23:02:08.840Z,5.73
2018-04-18T23:04:36.395Z,5.83
2018-04-18T23:07:03.952Z,6.20
2018-04-18T23:09:31.512Z,6.20
2018-04-18T23:11:59.103Z,6.60
2018-04-18T23:14:26.673Z,6.30
2018-04-18T23:16:54.241Z,6.60
2018-04-18T23:19:21.803Z,6.33
2018-04-18T23:21:49.400Z,6.50
2018-04-18T23:24:16.980Z,6.37
2018-04-18T23:26:44.570Z,5.93
2018-04-18T23:29:12.182Z,6.17
2018-04-18T23:31:39.740Z,6.37
2018-04-18T23:34:07.315Z,6.27
2018-04-18T23:36:34.935Z,6.43
2018-04-18T23:39:02.522Z,5.90
2018-04-18T23:41:30.139Z,6.20
2018-04-18T23:43:57.691Z,5.67
2018-04-18T23:46:25.296Z,6.20
2018-04-18T23:48:52.857Z,6.50
2018-04-18T23:51:20.415Z,6.20
2018-04-18T23:53:47.975Z,5.93
2018-04-18T23:56:15.557Z,6.53
2018-04-18T23:58:43.143Z,6.77
